createdAt,value
2019-02-15T00:00:52.314Z,3.10
2019-02-15T00:03:19.511Z,3.00
2019-02-15T00:05:47.322Z,3.00
2019-02-15T00:08:14.509Z,3.00
2019-02-15T00:10:41.698Z,3.00
2019-02-15T00:13:13.508Z,2.90
2019-02-15T00:15:38.038Z,2.90
2019-02-15T00:18:34.510Z,2.90
2019-02-15T00:21:21.292Z,2.90
2019-02-15T00:23:48.794Z,2.90
2019-02-15T00:26:16.677Z,2.80
2019-02-15T00:28:44.247Z,2.90
2019-02-15T00:31:14.498Z,3.10
2019-02-15T00:33:41.681Z,2.80
2019-02-15T00:36:10.137Z,2.80
2019-02-15T00:38:37.387Z,2.80
2019-02-15T00:41:04.803Z,2.80
2019-02-15T00:43:31.967Z,2.80
2019-02-15T00:46:27.406Z,2.70
2019-02-15T00:48:55.530Z,2.80
2019-02-15T00:51:41.160Z,2.70
2019-02-15T00:54:14.176Z,2.70
2019-02-15T00:56:54.426Z,2.60
2019-02-15T00:59:29.780Z,2.60
2019-02-15T01:02:04.666Z,2.60
2019-02-15T01:04:54.645Z,2.60
2019-02-15T01:07:45.734Z,2.60
2019-02-15T01:10:36.194Z,2.60
2019-02-15T01:13:07.337Z,2.80
2019-02-15T01:15:35.319Z,2.50
2019-02-15T01:18:03.517Z,2.50
2019-02-15T01:20:31.594Z,2.50
2019-02-15T01:22:59.998Z,2.50
2019-02-15T01:25:32.191Z,2.50
2019-02-15T01:28:20.248Z,2.50
2019-02-15T01:31:07.121Z,2.50
2019-02-15T01:33:52.564Z,2.50
2019-02-15T01:36:48.406Z,2.50
2019-02-15T01:39:21.842Z,2.40
2019-02-15T01:42:16.334Z,2.40
2019-02-15T01:44:56.698Z,2.40
2019-02-15T01:47:28.948Z,2.40
2019-02-15T01:49:59.182Z,2.40
2019-02-15T01:52:26.322Z,2.40
2019-02-15T01:54:53.506Z,2.30
2019-02-15T01:57:20.586Z,2.30
2019-02-15T01:59:47.742Z,2.30
2019-02-15T02:02:15.382Z,2.30
2019-02-15T02:04:42.565Z,2.30
2019-02-15T02:07:09.835Z,2.20
2019-02-15T02:09:37.025Z,2.20
2019-02-15T02:12:05.291Z,2.20
2019-02-15T02:14:32.527Z,2.20
2019-02-15T02:17:00.381Z,2.20
2019-02-15T02:19:27.681Z,2.20
2019-02-15T02:21:56.625Z,2.20
2019-02-15T02:24:25.346Z,2.20
2019-02-15T02:26:53.784Z,2.20
2019-02-15T02:29:22.593Z,2.20
2019-02-15T02:31:50.964Z,2.40
2019-02-15T02:34:19.451Z,2.10
2019-02-15T02:36:49.702Z,2.10
2019-02-15T02:39:18.349Z,2.10
2019-02-15T02:41:47.671Z,2.10
2019-02-15T02:44:16.555Z,2.10
2019-02-15T02:46:45.898Z,2.10
2019-02-15T02:49:14.229Z,2.10
2019-02-15T02:51:42.191Z,1.90
2019-02-15T02:54:10.962Z,2.10
2019-02-15T02:56:39.554Z,2.10
2019-02-15T02:59:08.613Z,2.10
2019-02-15T03:01:36.043Z,2.10
2019-02-15T03:04:04.922Z,2.00
2019-02-15T03:06:33.714Z,2.00
2019-02-15T03:09:04.223Z,1.90
2019-02-15T03:11:32.593Z,1.50
2019-02-15T03:14:10.756Z,1.90
2019-02-15T03:16:29.359Z,1.90
2019-02-15T03:18:56.686Z,1.90
2019-02-15T03:21:23.669Z,1.90
2019-02-15T03:23:51.939Z,1.90
2019-02-15T03:26:19.979Z,1.90
2019-02-15T03:28:48.508Z,1.90
2019-02-15T03:31:16.861Z,1.90
2019-02-15T03:33:45.122Z,2.10
2019-02-15T03:36:19.604Z,1.90
2019-02-15T03:38:55.526Z,1.90
2019-02-15T03:41:31.929Z,1.90
2019-02-15T03:43:59.363Z,1.80
2019-02-15T03:46:26.539Z,1.80
2019-02-15T03:48:53.790Z,1.80
2019-02-15T03:51:21.953Z,1.80
2019-02-15T03:53:50.126Z,1.80
2019-02-15T03:56:18.415Z,1.80
2019-02-15T03:58:45.908Z,1.80
2019-02-15T04:01:14.547Z,1.80
2019-02-15T04:03:42.721Z,1.80
2019-02-15T04:06:11.481Z,1.70
2019-02-15T04:08:40.348Z,1.70
2019-02-15T04:11:07.862Z,1.80
2019-02-15T04:13:38.863Z,1.80
2019-02-15T04:16:07.447Z,1.70
2019-02-15T04:18:35.538Z,1.70
2019-02-15T04:21:04.469Z,1.70
2019-02-15T04:23:33.094Z,1.70
2019-02-15T04:26:02.085Z,1.70
2019-02-15T04:28:31.454Z,1.70
2019-02-15T04:30:58.629Z,1.70
2019-02-15T04:33:27.638Z,1.70
2019-02-15T04:35:56.770Z,1.70
2019-02-15T04:38:24.906Z,1.70
2019-02-15T04:40:52.688Z,1.70
2019-02-15T04:43:21.020Z,1.60
2019-02-15T04:45:49.613Z,1.60
2019-02-15T04:48:18.244Z,1.60
2019-02-15T04:50:45.662Z,1.60
2019-02-15T04:53:14.230Z,1.60
2019-02-15T04:55:43.054Z,1.60
2019-02-15T04:58:12.038Z,1.60
2019-02-15T05:00:40.267Z,1.60
2019-02-15T05:03:09.208Z,1.60
2019-02-15T05:05:37.398Z,1.60
2019-02-15T05:08:06.334Z,1.60
2019-02-15T05:10:34.676Z,1.60
2019-02-15T05:13:03.134Z,1.50
2019-02-15T05:15:31.642Z,1.60
2019-02-15T05:17:59.682Z,1.60
2019-02-15T05:20:27.865Z,1.60
2019-02-15T05:22:56.020Z,1.60
2019-02-15T05:25:24.425Z,1.50
2019-02-15T05:27:52.634Z,1.50
2019-02-15T05:30:19.578Z,1.50
2019-02-15T05:32:47.751Z,1.50
2019-02-15T05:35:15.807Z,1.50
2019-02-15T05:37:43.899Z,1.50
2019-02-15T05:40:12.266Z,1.50
2019-02-15T05:42:41.182Z,1.50
2019-02-15T05:45:09.335Z,1.50
2019-02-15T05:47:37.501Z,1.50
2019-02-15T05:50:06.052Z,1.50
2019-02-15T05:52:34.172Z,1.50
2019-02-15T05:55:02.800Z,1.50
2019-02-15T05:57:31.063Z,1.50
2019-02-15T05:59:59.041Z,1.50
2019-02-15T06:02:27.202Z,1.40
2019-02-15T06:04:55.360Z,1.40
2019-02-15T06:07:23.616Z,1.50
2019-02-15T06:09:51.905Z,1.40
2019-02-15T06:12:20.027Z,1.40
2019-02-15T06:14:48.166Z,1.40
2019-02-15T06:17:16.439Z,1.40
2019-02-15T06:19:43.484Z,1.50
2019-02-15T06:22:12.306Z,1.40
2019-02-15T06:24:41.211Z,1.70
2019-02-15T06:27:09.891Z,1.50
2019-02-15T06:29:38.324Z,1.50
2019-02-15T06:32:06.953Z,1.40
2019-02-15T06:34:35.551Z,1.40
2019-02-15T06:37:03.842Z,1.40
2019-02-15T06:39:32.926Z,1.40
2019-02-15T06:42:02.175Z,1.40
2019-02-15T06:44:30.433Z,1.40
2019-02-15T06:46:59.596Z,1.40
2019-02-15T06:49:28.060Z,1.40
2019-02-15T06:51:56.799Z,1.40
2019-02-15T06:54:25.420Z,1.40
2019-02-15T06:56:53.006Z,1.40
2019-02-15T06:59:59.011Z,1.40
2019-02-15T07:02:30.818Z,1.40
2019-02-15T07:05:15.313Z,1.40
2019-02-15T07:07:48.045Z,1.40
2019-02-15T07:10:15.258Z,1.40
2019-02-15T07:12:42.726Z,1.40
2019-02-15T07:15:14.672Z,1.40
2019-02-15T07:17:42.751Z,1.40
2019-02-15T07:20:10.966Z,1.40
2019-02-15T07:22:38.890Z,1.70
2019-02-15T07:25:09.214Z,1.40
2019-02-15T07:27:36.614Z,1.50
2019-02-15T07:30:05.198Z,1.50
2019-02-15T07:32:33.021Z,1.50
2019-02-15T07:35:02.184Z,1.50
2019-02-15T07:37:29.644Z,1.50
2019-02-15T07:39:58.260Z,1.50
2019-02-15T07:42:25.566Z,1.50
2019-02-15T07:44:53.738Z,1.50
2019-02-15T07:47:21.162Z,1.60
2019-02-15T07:49:48.430Z,1.60
2019-02-15T07:52:15.606Z,1.60
2019-02-15T07:54:43.104Z,1.60
2019-02-15T07:57:10.415Z,1.90
2019-02-15T07:59:37.974Z,1.70
2019-02-15T08:02:06.207Z,1.80
2019-02-15T08:04:34.026Z,1.80
2019-02-15T08:07:01.589Z,1.80
2019-02-15T08:09:29.430Z,1.90
2019-02-15T08:11:57.178Z,1.90
2019-02-15T08:14:26.081Z,2.00
2019-02-15T08:16:53.929Z,1.70
2019-02-15T08:19:23.367Z,2.70
2019-02-15T08:21:51.128Z,2.20
2019-02-15T08:24:20.274Z,2.30
2019-02-15T08:26:48.699Z,2.40
2019-02-15T08:29:17.010Z,2.50
2019-02-15T08:31:45.466Z,2.60
2019-02-15T08:34:14.139Z,2.70
2019-02-15T08:36:42.615Z,2.80
2019-02-15T08:39:10.890Z,2.70
2019-02-15T08:41:39.487Z,3.00
2019-02-15T08:44:08.274Z,2.90
2019-02-15T08:46:35.665Z,3.20
2019-02-15T08:49:04.115Z,4.00
2019-02-15T08:51:33.039Z,3.50
2019-02-15T08:54:01.595Z,3.60
2019-02-15T08:56:30.162Z,3.80
2019-02-15T08:58:59.071Z,3.90
2019-02-15T09:01:26.574Z,4.10
2019-02-15T09:03:55.471Z,4.30
2019-02-15T09:06:24.825Z,4.50
2019-02-15T09:08:54.062Z,4.70
2019-02-15T09:11:21.983Z,5.30
2019-02-15T09:13:49.854Z,4.90
2019-02-15T09:16:18.749Z,5.50
2019-02-15T09:18:47.278Z,5.90
2019-02-15T09:21:15.132Z,6.20
2019-02-15T09:23:43.871Z,6.80
2019-02-15T09:26:17.968Z,7.60
2019-02-15T09:28:46.603Z,7.90
2019-02-15T09:31:15.045Z,8.10
2019-02-15T09:33:43.847Z,8.30
2019-02-15T09:36:12.096Z,8.40
2019-02-15T09:38:40.698Z,8.50
2019-02-15T09:41:08.975Z,8.60
2019-02-15T09:43:38.289Z,8.70
2019-02-15T09:46:06.161Z,9.20
2019-02-15T09:48:35.095Z,9.20
2019-02-15T09:51:02.299Z,9.60
2019-02-15T09:53:30.776Z,9.60
2019-02-15T09:56:01.126Z,9.80
2019-02-15T09:58:30.727Z,10.00
2019-02-15T10:00:58.354Z,10.50
2019-02-15T10:03:26.671Z,10.40
2019-02-15T10:05:54.794Z,10.30
2019-02-15T10:08:25.648Z,11.00
2019-02-15T10:10:54.438Z,10.90
2019-02-15T10:13:23.242Z,11.00
2019-02-15T10:15:50.429Z,11.10
2019-02-15T10:18:19.684Z,11.30
2019-02-15T10:20:48.386Z,11.40
2019-02-15T10:23:16.958Z,11.60
2019-02-15T10:25:46.419Z,11.80
2019-02-15T10:28:14.087Z,11.90
2019-02-15T10:30:42.770Z,12.00
2019-02-15T10:33:14.490Z,12.10
2019-02-15T10:35:45.314Z,12.20
2019-02-15T10:38:13.266Z,12.30
2019-02-15T10:40:40.517Z,12.40
2019-02-15T10:43:08.946Z,12.60
2019-02-15T10:45:43.124Z,12.70
2019-02-15T10:48:11.171Z,12.80
2019-02-15T10:50:40.004Z,13.30
2019-02-15T10:53:08.683Z,13.20
2019-02-15T10:55:38.138Z,13.20
2019-02-15T10:58:10.751Z,13.30
2019-02-15T11:00:38.350Z,13.40
2019-02-15T11:03:06.882Z,13.70
2019-02-15T11:05:36.106Z,13.70
2019-02-15T11:08:04.767Z,13.80
2019-02-15T11:10:32.545Z,14.00
2019-02-15T11:13:01.290Z,13.80
2019-02-15T11:15:29.560Z,14.20
2019-02-15T11:17:57.660Z,14.40
2019-02-15T11:20:25.861Z,14.60
2019-02-15T11:22:54.022Z,14.70
2019-02-15T11:25:26.165Z,14.80
2019-02-15T11:27:54.239Z,14.80
2019-02-15T11:30:22.708Z,14.90
2019-02-15T11:32:50.791Z,15.00
2019-02-15T11:35:19.098Z,15.10
2019-02-15T11:37:48.752Z,15.30
2019-02-15T11:40:17.681Z,15.40
2019-02-15T11:42:46.050Z,15.50
2019-02-15T11:45:14.335Z,15.60
2019-02-15T11:47:42.614Z,15.80
2019-02-15T11:50:15.079Z,16.00
2019-02-15T11:52:43.260Z,16.10
2019-02-15T11:55:11.521Z,16.40
2019-02-15T11:57:39.905Z,16.40
2019-02-15T12:00:14.835Z,16.50
2019-02-15T12:02:43.363Z,16.60
2019-02-15T12:05:11.883Z,16.80
2019-02-15T12:07:40.266Z,16.90
2019-02-15T12:10:08.543Z,17.00
2019-02-15T12:12:39.690Z,17.30
2019-02-15T12:15:07.962Z,17.20
2019-02-15T12:17:36.229Z,17.40
2019-02-15T12:20:05.907Z,17.40
2019-02-15T12:22:34.146Z,17.70
2019-02-15T12:25:03.765Z,17.60
2019-02-15T12:27:31.765Z,17.60
2019-02-15T12:30:00.038Z,17.80
2019-02-15T12:32:28.106Z,17.90
2019-02-15T12:34:56.634Z,18.00
2019-02-15T12:37:31.857Z,18.10
2019-02-15T12:39:58.819Z,18.20
2019-02-15T12:42:25.976Z,18.30
2019-02-15T12:44:53.139Z,18.40
2019-02-15T12:47:21.298Z,18.40
2019-02-15T12:49:49.374Z,18.50
2019-02-15T12:52:18.362Z,18.50
2019-02-15T12:54:47.361Z,18.60
2019-02-15T12:57:15.049Z,18.50
2019-02-15T12:59:42.367Z,18.50
2019-02-15T13:02:10.511Z,18.50
2019-02-15T13:04:41.113Z,18.40
2019-02-15T13:07:09.652Z,18.50
2019-02-15T13:09:36.697Z,18.60
2019-02-15T13:12:03.894Z,18.90
2019-02-15T13:14:31.169Z,18.80
2019-02-15T13:16:59.422Z,18.90
2019-02-15T13:19:30.696Z,19.00
2019-02-15T13:21:57.771Z,19.00
2019-02-15T13:24:26.167Z,19.00
2019-02-15T13:26:54.322Z,19.00
2019-02-15T13:29:22.383Z,19.40
2019-02-15T13:31:53.605Z,19.30
2019-02-15T13:34:22.071Z,19.20
2019-02-15T13:36:50.143Z,19.30
2019-02-15T13:39:18.687Z,19.40
2019-02-15T13:41:47.778Z,19.40
2019-02-15T13:44:20.251Z,19.60
2019-02-15T13:46:47.515Z,19.50
2019-02-15T13:49:15.474Z,19.60
2019-02-15T13:51:43.863Z,19.50
2019-02-15T13:54:12.329Z,19.50
2019-02-15T13:56:40.599Z,19.40
2019-02-15T13:59:12.447Z,19.50
2019-02-15T14:01:39.414Z,19.40
2019-02-15T14:04:07.836Z,19.50
2019-02-15T14:06:34.924Z,19.50
2019-02-15T14:09:04.614Z,19.40
2019-02-15T14:11:33.970Z,19.70
2019-02-15T14:14:01.935Z,19.50
2019-02-15T14:16:30.218Z,19.40
2019-02-15T14:18:58.554Z,19.40
2019-02-15T14:21:27.322Z,19.50
2019-02-15T14:23:54.494Z,19.60
2019-02-15T14:26:22.765Z,19.50
2019-02-15T14:28:51.086Z,19.40
2019-02-15T14:31:18.165Z,19.40
2019-02-15T14:33:46.237Z,19.50
2019-02-15T14:36:14.543Z,19.50
2019-02-15T14:38:42.747Z,19.70
2019-02-15T14:41:11.123Z,19.50
2019-02-15T14:43:39.752Z,19.20
2019-02-15T14:46:06.960Z,19.90
2019-02-15T14:48:35.243Z,19.50
2019-02-15T14:51:04.985Z,19.50
2019-02-15T14:53:39.816Z,19.40
2019-02-15T14:56:06.926Z,19.40
2019-02-15T14:58:34.186Z,19.50
2019-02-15T15:01:02.175Z,19.50
2019-02-15T15:03:29.346Z,19.50
2019-02-15T15:05:56.491Z,19.40
2019-02-15T15:08:23.877Z,19.60
2019-02-15T15:10:55.060Z,19.40
2019-02-15T15:13:36.446Z,19.40
2019-02-15T15:16:08.270Z,19.30
2019-02-15T15:18:39.503Z,19.30
2019-02-15T15:21:06.508Z,19.20
2019-02-15T15:23:33.915Z,19.20
2019-02-15T15:26:01.062Z,19.20
2019-02-15T15:28:28.880Z,19.10
2019-02-15T15:30:57.212Z,19.00
2019-02-15T15:33:29.288Z,19.10
2019-02-15T15:36:05.222Z,18.90
2019-02-15T15:38:32.468Z,18.80
2019-02-15T15:40:59.497Z,18.70
2019-02-15T15:43:33.122Z,19.00
2019-02-15T15:46:00.558Z,18.50
2019-02-15T15:48:28.918Z,18.50
2019-02-15T15:50:56.457Z,18.40
2019-02-15T15:53:23.913Z,18.40
2019-02-15T15:55:51.321Z,18.20
2019-02-15T15:58:18.894Z,18.10
2019-02-15T16:00:46.767Z,18.00
2019-02-15T16:03:14.321Z,17.90
2019-02-15T16:05:42.076Z,18.20
2019-02-15T16:08:09.590Z,17.70
2019-02-15T16:10:36.718Z,17.30
2019-02-15T16:13:03.906Z,17.60
2019-02-15T16:15:31.163Z,17.50
2019-02-15T16:17:58.597Z,17.70
2019-02-15T16:20:26.047Z,17.30
2019-02-15T16:22:53.523Z,17.20
2019-02-15T16:25:20.578Z,17.10
2019-02-15T16:27:47.596Z,17.10
2019-02-15T16:30:15.150Z,17.00
2019-02-15T16:32:42.505Z,16.80
2019-02-15T16:35:10.834Z,16.80
2019-02-15T16:37:39.086Z,16.40
2019-02-15T16:40:07.525Z,16.60
2019-02-15T16:42:36.094Z,16.40
2019-02-15T16:45:04.878Z,16.80
2019-02-15T16:47:33.104Z,16.30
2019-02-15T16:50:01.206Z,16.00
2019-02-15T16:52:29.365Z,15.80
2019-02-15T16:54:57.333Z,15.90
2019-02-15T16:57:25.379Z,15.50
2019-02-15T16:59:53.602Z,15.60
2019-02-15T17:02:21.853Z,15.20
2019-02-15T17:04:49.949Z,15.10
2019-02-15T17:07:17.239Z,14.90
2019-02-15T17:09:45.696Z,14.70
2019-02-15T17:12:13.930Z,14.60
2019-02-15T17:14:42.073Z,14.50
2019-02-15T17:17:10.166Z,14.30
2019-02-15T17:19:38.908Z,14.30
2019-02-15T17:22:07.091Z,14.00
2019-02-15T17:24:34.238Z,13.90
2019-02-15T17:27:02.505Z,14.00
2019-02-15T17:29:31.242Z,13.30
2019-02-15T17:32:00.566Z,13.50
2019-02-15T17:34:28.969Z,13.40
2019-02-15T17:36:57.404Z,13.30
2019-02-15T17:39:26.665Z,13.20
2019-02-15T17:41:54.009Z,13.00
2019-02-15T17:44:22.240Z,13.00
2019-02-15T17:46:51.077Z,13.10
2019-02-15T17:49:19.194Z,12.70
2019-02-15T17:51:46.259Z,12.70
2019-02-15T17:54:15.389Z,12.30
2019-02-15T17:56:43.206Z,12.30
2019-02-15T17:59:12.185Z,12.30
2019-02-15T18:01:40.939Z,12.20
2019-02-15T18:04:08.469Z,12.20
2019-02-15T18:06:37.097Z,12.10
2019-02-15T18:09:05.382Z,12.70
2019-02-15T18:11:35.478Z,12.00
2019-02-15T18:14:02.896Z,12.10
2019-02-15T18:16:30.210Z,12.00
2019-02-15T18:18:58.948Z,12.10
2019-02-15T18:21:27.673Z,12.30
2019-02-15T18:23:56.379Z,12.10
2019-02-15T18:26:24.521Z,12.40
2019-02-15T18:28:53.645Z,12.10
2019-02-15T18:31:21.818Z,12.00
2019-02-15T18:33:49.755Z,12.00
2019-02-15T18:36:17.962Z,12.20
2019-02-15T18:38:46.609Z,12.10
2019-02-15T18:41:13.945Z,12.10
2019-02-15T18:43:42.557Z,12.60
2019-02-15T18:46:11.110Z,12.50
2019-02-15T18:48:39.618Z,12.30
2019-02-15T18:51:07.553Z,12.50
2019-02-15T18:53:36.150Z,12.20
2019-02-15T18:56:05.039Z,12.50
2019-02-15T18:58:32.881Z,12.20
2019-02-15T19:01:01.105Z,12.20
2019-02-15T19:03:29.278Z,12.20
2019-02-15T19:05:57.430Z,12.50
2019-02-15T19:08:25.929Z,12.10
2019-02-15T19:10:55.135Z,12.10
2019-02-15T19:13:24.028Z,12.20
2019-02-15T19:15:52.200Z,12.20
2019-02-15T19:18:20.678Z,12.20
2019-02-15T19:20:49.886Z,12.30
2019-02-15T19:23:17.531Z,12.30
2019-02-15T19:25:45.515Z,12.30
2019-02-15T19:28:14.101Z,12.90
2019-02-15T19:30:42.702Z,12.70
2019-02-15T19:33:11.570Z,12.50
2019-02-15T19:35:38.742Z,12.60
2019-02-15T19:38:07.645Z,13.00
2019-02-15T19:40:35.784Z,12.50
2019-02-15T19:43:04.266Z,12.50
2019-02-15T19:45:32.746Z,12.50
2019-02-15T19:48:01.559Z,12.50
2019-02-15T19:50:30.353Z,12.40
2019-02-15T19:52:57.734Z,12.40
2019-02-15T19:55:26.406Z,12.60
2019-02-15T19:57:55.345Z,12.30
2019-02-15T20:00:24.558Z,12.30
2019-02-15T20:02:52.431Z,12.30
2019-02-15T20:05:20.603Z,12.90
2019-02-15T20:07:48.867Z,12.60
2019-02-15T20:10:18.690Z,12.20
2019-02-15T20:12:46.960Z,12.90
2019-02-15T20:15:15.518Z,12.30
2019-02-15T20:17:42.700Z,12.70
2019-02-15T20:20:11.691Z,12.30
2019-02-15T20:22:40.119Z,12.50
2019-02-15T20:25:09.139Z,12.30
2019-02-15T20:27:37.466Z,12.30
2019-02-15T20:30:08.722Z,12.20
2019-02-15T20:32:35.902Z,12.40
2019-02-15T20:35:04.949Z,12.50
2019-02-15T20:37:32.395Z,12.20
2019-02-15T20:40:00.594Z,12.10
2019-02-15T20:42:29.114Z,12.10
2019-02-15T20:44:56.415Z,12.00
2019-02-15T20:47:24.661Z,11.90
2019-02-15T20:49:58.148Z,12.00
2019-02-15T20:52:23.094Z,12.00
2019-02-15T20:54:50.743Z,12.00
2019-02-15T20:57:19.150Z,12.10
2019-02-15T20:59:46.625Z,11.90
2019-02-15T21:02:14.902Z,11.80
2019-02-15T21:04:43.128Z,11.90
2019-02-15T21:07:12.731Z,11.80
2019-02-15T21:09:41.723Z,11.80
2019-02-15T21:12:08.832Z,11.80
2019-02-15T21:14:37.332Z,11.80
2019-02-15T21:17:04.598Z,12.10
2019-02-15T21:19:32.892Z,11.80
2019-02-15T21:22:01.074Z,12.00
2019-02-15T21:24:29.602Z,12.00
2019-02-15T21:26:56.811Z,11.60
2019-02-15T21:29:25.495Z,11.70
2019-02-15T21:31:53.982Z,11.70
2019-02-15T21:34:22.049Z,11.90
2019-02-15T21:36:50.627Z,11.70
2019-02-15T21:39:17.953Z,11.70
2019-02-15T21:41:46.197Z,11.60
2019-02-15T21:44:14.466Z,11.60
2019-02-15T21:46:42.810Z,11.60
2019-02-15T21:49:11.012Z,11.50
2019-02-15T21:51:38.582Z,11.60
2019-02-15T21:54:07.262Z,11.60
2019-02-15T21:56:34.752Z,11.80
2019-02-15T21:59:02.990Z,11.50
2019-02-15T22:01:31.090Z,11.90
2019-02-15T22:03:59.400Z,11.50
2019-02-15T22:06:27.842Z,11.80
2019-02-15T22:08:56.230Z,11.60
2019-02-15T22:11:24.402Z,11.60
2019-02-15T22:13:53.376Z,11.60
2019-02-15T22:16:22.146Z,11.60
2019-02-15T22:18:51.215Z,11.60
2019-02-15T22:21:19.083Z,11.60
2019-02-15T22:23:47.462Z,11.80
2019-02-15T22:26:17.663Z,11.60
2019-02-15T22:28:45.954Z,11.60
2019-02-15T22:31:13.415Z,11.90
2019-02-15T22:33:40.510Z,11.60
2019-02-15T22:36:09.352Z,11.60
2019-02-15T22:38:38.346Z,11.60
2019-02-15T22:41:15.943Z,11.70
2019-02-15T22:43:45.001Z,11.60
2019-02-15T22:46:13.519Z,11.70
2019-02-15T22:48:42.799Z,11.60
2019-02-15T22:51:09.971Z,11.30
2019-02-15T22:53:38.751Z,11.80
2019-02-15T22:56:07.542Z,12.10
2019-02-15T22:58:35.971Z,11.80
2019-02-15T23:01:12.352Z,11.90
2019-02-15T23:03:39.831Z,11.80
2019-02-15T23:06:07.943Z,11.80
2019-02-15T23:08:35.167Z,11.90
2019-02-15T23:11:03.463Z,11.80
2019-02-15T23:13:30.742Z,11.80
2019-02-15T23:15:59.335Z,12.10
2019-02-15T23:18:26.494Z,11.80
2019-02-15T23:20:55.019Z,12.00
2019-02-15T23:23:22.191Z,11.90
2019-02-15T23:25:50.395Z,11.90
2019-02-15T23:28:18.566Z,11.90
2019-02-15T23:30:46.847Z,11.90
2019-02-15T23:33:15.058Z,11.90
2019-02-15T23:35:43.173Z,12.00
2019-02-15T23:38:10.534Z,12.10
2019-02-15T23:40:38.723Z,11.90
2019-02-15T23:43:06.898Z,12.20
2019-02-15T23:45:35.077Z,11.90
2019-02-15T23:48:03.258Z,11.90
2019-02-15T23:50:31.455Z,11.90
2019-02-15T23:52:59.634Z,12.20
2019-02-15T23:55:27.821Z,11.90
2019-02-15T23:57:54.927Z,12.20
